Latest Weather Observations for Canberra

IDN60801

Issued at 11:13 pm EST Wednesday 2 September 2026 (issued every 10 minutes, with the page automatically refreshed every 10 minutes)

About weather observations | Map of weather stations | Latest weather observations for NSW | Other Formats
Station Details ID: 070351 Name: CANBERRA AIRPORT Lat: -35.31 Lon: 149.20 Height: 577.05 m
Data from the previous 72 hours. | See also: Recent months at Canberra
Date/Time
EST
Temp
°C
App
Temp
°C
Dew
Point
°C
Rel
Hum
%
Delta-T
°C
Wind Press
QNH
hPa
Press
MSL
hPa
Rain since
9am
mm
Dir  Spd
km/h
Gust
km/h
Spd
kts
Gust
kts
02/11:00pm 14.8 11.5 10.8 77 2.2 NNW 19 26 10 14 1014.1 1014.2 0.0
02/10:30pm 14.3 10.7 10.7 79 2.0 NW 20 26 11 14 1014.0 1014.1 0.0
02/10:00pm 13.4 10.8 10.6 83 1.5 NW 15 24 8 13 1014.0 1014.1 0.0
02/09:30pm 13.4 11.0 10.2 81 1.7 NW 13 15 7 8 1014.3 1014.3 0.0
02/09:00pm 13.9 11.2 10.5 80 1.8 NW 15 20 8 11 1014.5 1014.6 0.0
02/08:30pm 14.5 12.2 10.5 77 2.2 NW 13 17 7 9 1014.6 1014.7 0.0
02/08:00pm 14.7 11.9 10.1 74 2.5 NNW 15 19 8 10 1014.9 1015.0 0.0
02/07:30pm 15.6 12.5 10.2 70 2.9 NNW 17 19 9 10 1015.0 1015.1 0.0
02/07:00pm 16.3 13.4 9.7 65 3.5 NW 15 19 8 10 1015.0 1015.1 0.0
02/06:30pm 16.0 12.1 9.4 65 3.5 NW 20 33 11 18 1015.0 1015.1 0.0
02/06:00pm 16.3 11.5 9.0 62 3.9 NW 24 33 13 18 1014.5 1014.6 0.0
02/05:30pm 16.9 12.0 8.6 58 4.4 NW 24 33 13 18 1014.6 1014.7 0.0
02/05:00pm 17.5 13.0 8.4 55 4.8 NW 22 30 12 16 1014.5 1014.6 0.0
02/04:30pm 17.9 13.3 8.2 53 5.1 WNW 22 37 12 20 1014.3 1014.3 0.0
02/04:00pm 19.6 13.7 7.7 46 6.3 WNW 28 37 15 20 1014.3 1014.3 0.0
02/03:30pm 19.6 13.3 7.4 45 6.4 WNW 30 41 16 22 1014.6 1014.7 0.0
02/03:00pm 20.3 14.5 8.0 45 6.6 WNW 28 35 15 19 1014.8 1014.9 0.0
02/02:30pm 19.6 14.3 8.3 48 6.0 WNW 26 35 14 19 1014.6 1014.7 0.0
02/02:00pm 20.2 14.0 7.9 45 6.5 WNW 30 43 16 23 1014.5 1014.6 0.0
02/01:51pm 21.1 14.7 8.4 44 6.8 WNW 32 46 17 25 1014.6 1014.7 0.0
02/01:32pm 21.1 14.7 8.4 44 6.8 WNW 32 52 17 28 1014.5 1014.6 0.0
02/01:30pm 21.3 14.8 8.2 43 7.0 WNW 32 43 17 23 1014.5 1014.6 0.0
02/01:00pm 20.5 14.2 8.8 47 6.3 WNW 32 44 17 24 1015.1 1015.2 0.0
02/12:30pm 20.0 15.2 10.4 54 5.3 NW 26 35 14 19 1015.5 1015.6 0.0
02/12:00pm 17.6 12.4 9.0 57 4.6 NNW 26 33 14 18 1016.2 1016.3 0.0
02/11:30am 18.8 14.2 9.8 56 4.9 NW 24 33 13 18 1016.7 1016.8 0.0
02/11:00am 18.1 14.1 9.2 56 4.8 NNW 20 32 11 17 1016.9 1017.0 0.0
02/10:30am 17.8 14.0 9.7 59 4.4 NNW 20 28 11 15 1017.2 1017.3 0.0
02/10:00am 16.7 12.7 8.9 60 4.1 NW 20 30 11 16 1017.4 1017.6 0.0
02/09:30am 16.2 12.1 8.7 61 4.0 NNW 20 28 11 15 1017.4 1017.6 0.0
02/09:00am 15.9 11.5 8.9 63 3.7 NW 22 30 12 16 1017.2 1017.3 0.0
02/08:30am 15.2 10.3 8.4 64 3.5 NNW 24 32 13 17 1017.5 1017.7 0.0
02/08:00am 14.4 9.1 8.4 67 3.1 NW 26 33 14 18 1017.1 1017.2 0.0
02/07:30am 13.4 9.5 8.5 72 2.5 NW 19 22 10 12 1016.9 1017.0 0.0
02/07:00am 12.2 7.3 8.5 78 1.9 NNW 24 28 13 15 1016.6 1016.7 0.0
02/06:30am 11.5 7.9 8.4 81 1.6 NNW 17 24 9 13 1016.6 1016.7 0.0
02/06:00am 11.5 7.9 8.2 80 1.7 N 17 20 9 11 1016.3 1016.4 0.0
02/05:30am 12.1 7.9 8.2 77 2.0 N 20 32 11 17 1016.0 1016.2 0.0
02/05:00am 12.5 7.5 8.2 75 2.2 N 24 28 13 15 1015.9 1016.1 0.0
02/04:30am 12.8 8.7 8.5 75 2.2 NNW 20 28 11 15 1016.3 1016.4 0.0
02/04:00am 12.5 8.6 8.6 77 2.0 NNW 19 22 10 12 1016.4 1016.5 0.0
02/03:30am 12.8 8.6 8.1 73 2.4 NNW 20 28 11 15 1016.2 1016.3 0.0
02/03:00am 13.4 8.8 8.0 70 2.8 NW 22 30 12 16 1016.9 1017.0 0.0
02/02:30am 13.4 8.8 8.0 70 2.8 NW 22 30 12 16 1017.0 1017.1 0.0
02/02:00am 13.2 8.5 7.9 70 2.7 NW 22 28 12 15 1017.0 1017.1 0.0
02/01:30am 12.8 9.7 8.9 77 2.0 WNW 15 20 8 11 1017.5 1017.7 0.0
02/01:00am 12.5 10.1 8.6 77 2.0 WSW 11 17 6 9 1017.6 1017.8 0.0
02/12:30am 12.5 10.9 8.8 78 1.9 NW 7 17 4 9 1017.5 1017.7 0.0
02/12:00am 12.2 9.0 8.3 77 2.0 NNW 15 19 8 10 1017.8 1018.0 0.0
 
Date/Time
EST
Temp
°C
App
Temp
°C
Dew
Point
°C
Rel
Hum
%
Delta-T
°C
Wind Press
QNH
hPa
Press
MSL
hPa
Rain since
9am
mm
Dir  Spd
km/h
Gust
km/h
Spd
kts
Gust
kts
01/11:30pm 13.0 10.0 9.1 77 2.0 NNW 15 19 8 10 1018.1 1018.2 0.0
01/11:00pm 12.9 9.1 9.0 77 2.0 NNW 19 22 10 12 1018.6 1018.7 0.0
01/10:30pm 12.8 9.4 9.1 78 1.9 N 17 19 9 10 1019.1 1019.3 0.0
01/10:00pm 13.2 8.8 8.9 75 2.2 NNW 22 28 12 15 1019.3 1019.5 0.0
01/09:30pm 13.4 8.6 8.7 73 2.4 NNW 24 32 13 17 1019.5 1019.7 0.0
01/09:00pm 14.1 8.9 8.7 70 2.8 NW 26 33 14 18 1019.6 1019.8 0.0
01/08:30pm 14.1 9.5 8.3 68 3.0 NW 22 32 12 17 1019.5 1019.7 0.0
01/08:00pm 14.6 9.6 8.1 65 3.3 NW 24 30 13 16 1019.9 1020.0 0.0
01/07:30pm 14.3 8.9 8.0 66 3.2 NNW 26 32 14 17 1019.7 1019.9 0.0
01/07:00pm 15.0 10.3 7.8 62 3.7 NNW 22 32 12 17 1020.1 1020.2 0.0
01/06:30pm 15.0 9.9 7.5 61 3.8 NNW 24 33 13 18 1020.3 1020.4 0.0
01/06:00pm 15.5 10.2 7.0 57 4.3 NW 24 35 13 19 1020.0 1020.1 0.0
01/05:30pm 16.0 10.6 6.2 52 4.9 NW 24 33 13 18 1020.0 1020.1 0.0
01/05:00pm 17.2 10.5 5.8 47 5.7 NW 30 39 16 21 1020.1 1020.2 0.0
01/04:30pm 18.0 11.9 6.5 47 5.9 WNW 28 37 15 20 1020.2 1020.3 0.0
01/04:00pm 18.5 11.0 6.4 45 6.2 NW 35 46 19 25 1020.2 1020.3 0.0
01/03:30pm 19.3 11.4 6.4 43 6.6 NW 37 50 20 27 1020.4 1020.6 0.0
01/03:04pm 18.7 9.9 5.5 42 6.6 NW 41 52 22 28 1020.6 1020.8 0.0
01/03:00pm 19.2 10.3 5.3 40 7.0 NW 41 52 22 28 1020.6 1020.8 0.0
01/02:47pm 19.5 12.3 5.2 39 7.2 WNW 32 54 17 29 1020.5 1020.7 0.0
01/02:30pm 19.3 11.5 5.0 39 7.2 NW 35 50 19 27 1020.7 1020.9 0.0
01/02:00pm 19.5 10.9 4.4 37 7.5 NW 39 52 21 28 1021.1 1021.3 0.0
01/01:30pm 19.9 13.5 5.2 38 7.4 WNW 28 37 15 20 1021.5 1021.7 0.0
01/01:00pm 19.3 10.9 3.9 36 7.5 WNW 37 50 20 27 1022.0 1022.2 0.0
01/12:45pm 19.3 11.5 5.0 39 7.2 WNW 35 50 19 27 1022.2 1022.4 0.0
01/12:35pm 18.9 12.0 6.4 44 6.4 WNW 32 50 17 27 1022.5 1022.7 0.0
01/12:30pm 18.3 11.7 6.2 45 6.2 WNW 30 43 16 23 1022.5 1022.7 0.0
01/12:00pm 19.0 12.6 8.6 51 5.5 NW 32 43 17 23 1023.3 1023.6 0.0
01/11:30am 18.2 10.1 7.0 48 5.8 NW 39 50 21 27 1023.8 1024.0 0.0
01/11:21am 18.5 11.0 7.9 50 5.6 NW 37 52 20 28 1024.0 1024.2 0.0
01/11:00am 18.2 11.6 7.9 51 5.4 NW 32 50 17 27 1024.5 1024.7 0.0
01/10:54am 18.0 11.8 7.7 51 5.4 NW 30 48 16 26 1024.5 1024.7 0.0
01/10:30am 17.3 11.6 8.2 55 4.8 NW 28 37 15 20 1024.8 1025.1 0.0
01/10:00am 16.7 11.2 9.1 61 4.0 NW 28 35 15 19 1025.4 1025.6 0.0
01/09:45am 16.0 10.3 8.5 61 3.9 NW 28 35 15 19 1025.6 1026.5 0.0
01/09:35am 15.4 12.2 8.6 64 3.6 NNW 15 32 8 17 1025.8 1026.7 0.0
01/09:30am 14.3 12.8 8.5 68 3.0 NNW 6 11 3 6 1025.9 1026.8 0.0
01/09:00am 10.3 9.9 8.1 86 1.1 CALM 0 0 0 0 1026.4 1027.4 0.0
01/08:30am 7.9 7.4 7.8 99 0.0 CALM 0 0 0 0 1026.7 1027.7 0.0
01/08:00am 5.5 4.5 5.5 100 0.0 CALM 0 0 0 0 1026.7 1027.7 0.0
01/07:30am 4.2 2.9 4.2 100 0.0 CALM 0 0 0 0 1026.9 1027.9 0.0
01/07:25am 3.8 2.4 3.8 100 0.0 CALM 0 0 0 0 1026.9 1027.9 0.0
01/07:00am 2.7 1.1 2.7 100 0.0 CALM 0 0 0 0 1026.7 1027.7 0.0
01/06:56am 2.7 1.1 2.7 100 0.0 CALM 0 0 0 0 1026.7 1027.7 0.0
01/06:43am 1.8 0.1 1.8 100 0.0 CALM 0 0 0 0 1026.7 1027.7 0.0
01/06:30am 2.3 0.7 2.3 100 0.0 CALM 0 0 0 0 1026.8 1027.8 0.0
01/06:26am 2.3 0.7 2.3 100 0.0 CALM 0 0 0 0 1026.8 1027.8 0.0
01/06:00am 1.2 -0.6 1.1 99 0.0 CALM 0 0 0 0 1026.7 1027.7 0.0
01/05:50am 2.3 0.7 2.2 99 0.0 CALM 0 0 0 0 1026.7 1027.7 0.0
01/05:37am 2.5 0.9 2.4 99 0.0 CALM 0 0 0 0 1026.7 1027.7 0.0
01/05:30am 2.4 0.8 2.3 99 0.0 CALM 0 0 0 0 1026.6 1027.6 0.0
01/05:26am 2.2 0.5 2.1 99 0.0 CALM 0 0 0 0 1026.6 1027.6 0.0
01/05:23am 2.1 0.4 2.0 99 0.0 CALM 0 0 0 0 1026.7 1027.7 0.0
01/05:18am 2.3 0.7 2.2 99 0.0 CALM 0 0 0 0 1026.7 1027.7 0.0
01/05:06am 2.7 1.1 2.7 100 0.0 CALM 0 0 0 0 1026.7 1027.7 0.0
01/05:00am 3.0 1.5 3.0 100 0.0 CALM 0 0 0 0 1026.8 1027.8 0.0
01/04:43am 3.2 1.7 3.2 100 0.0 CALM 0 0 0 0 1026.9 1027.9 0.0
01/04:31am 3.1 1.6 3.0 99 0.0 CALM 0 0 0 0 1027.0 1028.0 0.0
01/04:30am 3.2 1.7 3.1 99 0.0 CALM 0 0 0 0 1027.0 1028.0 0.0
01/04:16am 3.1 1.6 3.0 99 0.0 CALM 0 0 0 0 1027.2 1028.1 0.0
01/04:00am 3.0 1.5 2.9 99 0.0 CALM 0 0 0 0 1027.3 1028.2 0.0
01/03:52am 4.0 2.7 4.0 100 0.0 CALM 0 0 0 0 1027.3 1028.2 0.0
01/03:46am 4.0 2.7 3.9 99 0.0 CALM 0 0 0 0 1027.4 1028.3 0.0
01/03:44am 4.0 2.7 3.9 99 0.0 CALM 0 0 0 0 1027.4 1028.3 0.0
01/03:42am 4.1 2.8 4.0 99 0.0 CALM 0 0 0 0 1027.4 1028.3 0.0
01/03:33am 3.8 2.4 3.7 99 0.0 CALM 0 0 0 0 1027.4 1028.3 0.0
01/03:30am 3.5 2.1 3.4 99 0.0 CALM 0 0 0 0 1027.4 1028.3 0.0
01/03:00am 3.8 2.4 3.7 99 0.0 CALM 0 0 0 0 1027.6 1028.5 0.0
01/02:30am 4.0 2.7 3.9 99 0.0 CALM 0 0 0 0 1027.8 1028.8 0.0
01/02:00am 4.4 3.1 4.3 99 0.0 CALM 0 0 0 0 1028.1 1029.1 0.0
01/01:30am 4.7 3.5 4.6 99 0.0 CALM 0 0 0 0 1028.5 1029.5 0.0
01/01:00am 5.2 4.1 5.1 99 0.0 CALM 0 0 0 0 1028.6 1029.6 0.0
01/12:30am 5.5 4.5 5.4 99 0.0 CALM 0 0 0 0 1028.8 1029.8 0.0
01/12:00am 5.6 4.6 5.5 99 0.0 CALM 0 0 0 0 1028.6 1029.6 0.0
 
Date/Time
EST
Temp
°C
App
Temp
°C
Dew
Point
°C
Rel
Hum
%
Delta-T
°C
Wind Press
QNH
hPa
Press
MSL
hPa
Rain since
9am
mm
Dir  Spd
km/h
Gust
km/h
Spd
kts
Gust
kts
31/11:30pm 6.0 5.0 5.7 98 0.1 CALM 0 0 0 0 1028.7 1029.7 0.0
31/11:00pm 6.7 5.9 6.6 99 0.0 CALM 0 0 0 0 1029.2 1030.2 0.0
31/10:30pm 6.3 5.2 5.1 92 0.5 CALM 0 0 0 0 1029.4 1030.4 0.0
31/10:00pm 6.9 5.8 5.2 89 0.8 CALM 0 0 0 0 1029.6 1030.6 0.0
31/09:30pm 7.2 6.1 5.3 88 0.9 CALM 0 2 0 1 1029.6 1030.6 0.0
31/09:00pm 9.1 7.0 6.7 85 1.1 E 7 13 4 7 1029.6 1030.6 0.0
31/08:30pm 9.1 6.9 5.3 77 1.8 NNE 6 11 3 6 1029.6 1030.6 0.0
31/08:00pm 8.4 6.0 4.4 76 1.8 N 6 7 3 4 1029.4 1030.4 0.0
31/07:30pm 12.8 10.2 7.7 71 2.6 N 11 13 6 7 1029.4 1030.4 0.0
31/07:00pm 13.8 11.2 7.8 67 3.0 N 11 15 6 8 1029.3 1030.3 0.0
31/06:30pm 12.7 9.3 6.1 64 3.2 N 13 15 7 8 1029.2 1030.2 0.0
31/06:00pm 14.8 12.1 7.4 61 3.7 NNW 11 15 6 8 1028.9 1029.9 0.0
31/05:30pm 16.2 12.1 6.1 51 5.1 NNW 17 19 9 10 1028.8 1029.8 0.0
31/05:00pm 18.2 13.2 3.7 38 7.0 NNW 19 26 10 14 1028.7 1029.7 0.0
31/04:30pm 19.3 13.4 1.8 31 8.2 NNW 22 26 12 14 1028.7 1029.7 0.0
31/04:00pm 20.0 14.7 2.8 32 8.2 NNW 20 26 11 14 1028.7 1029.7 0.0
31/03:30pm 20.7 15.7 1.6 28 9.0 NNW 17 22 9 12 1028.8 1029.8 0.0
31/03:00pm 21.2 16.4 2.5 29 9.0 NW 17 24 9 13 1029.1 1030.0 0.0
31/02:30pm 21.4 16.4 1.1 26 9.6 NNW 17 24 9 13 1029.2 1030.2 0.0
31/02:00pm 21.4 17.0 0.6 25 9.6 W 13 20 7 11 1029.3 1030.3 0.0
31/01:30pm 21.4 17.3 2.2 28 9.2 NW 13 20 7 11 1029.6 1030.6 0.0
31/01:00pm 20.8 18.2 3.1 31 8.6 NE 6 11 3 6 1030.0 1031.0 0.0
31/12:30pm 20.1 16.5 -2.3 22 9.8 NNE 7 13 4 7 1030.3 1031.3 0.0
31/12:00pm 19.1 16.1 2.0 32 8.0 WNW 7 9 4 5 1030.9 1031.9 0.0
31/11:30am 17.6 15.8 3.5 39 6.8 N 2 7 1 4 1031.3 1032.3 0.0
31/11:00am 15.6 13.3 4.9 49 5.2 NNE 6 9 3 5 1031.9 1032.9 0.0
31/10:30am 14.8 12.6 6.1 56 4.3 NW 7 11 4 6 1032.2 1033.3 0.0
31/10:00am 13.0 11.6 5.7 61 3.5 W 2 9 1 5 1032.4 1033.5 0.0
31/09:30am 11.2 10.2 5.5 68 2.7 CALM 0 0 0 0 1032.6 1033.7 0.0
31/09:00am 9.8 7.9 5.0 72 2.2 E 4 9 2 5 1032.8 1033.8 0.0
31/08:30am 8.1 5.5 4.3 77 1.7 SSE 7 9 4 5 1032.8 1033.8 0.0
31/08:00am 7.0 4.7 4.8 86 1.0 SE 6 11 3 6 1032.5 1033.6 0.0
31/07:30am 3.9 2.2 3.8 99 0.0 SE 2 6 1 3 1032.4 1033.5 0.0
31/07:00am 1.9 0.2 1.8 99 0.0 CALM 0 0 0 0 1031.9 1032.9 0.0
31/06:30am 2.2 -0.6 2.1 99 0.0 ESE 6 7 3 4 1031.8 1032.8 0.0
31/06:00am 1.9 0.2 1.8 99 0.0 CALM 0 0 0 0 1031.7 1032.7 0.0
31/05:30am 2.3 0.7 2.2 99 0.0 CALM 0 0 0 0 1031.4 1032.4 0.0
31/05:00am 2.6 -0.3 2.5 99 0.0 ENE 7 7 4 4 1031.3 1032.3 0.0
31/04:30am 3.0 1.5 2.9 99 0.0 CALM 0 0 0 0 1031.1 1032.1 0.0
31/04:00am 3.4 2.0 3.3 99 0.0 CALM 0 0 0 0 1031.0 1032.0 0.0
31/03:30am 4.2 2.1 4.1 99 0.0 ENE 4 7 2 4 1030.6 1031.7 0.0
31/03:00am 4.0 1.9 3.9 99 0.0 ENE 4 11 2 6 1030.9 1031.9 0.0
31/02:30am 4.0 2.7 3.9 99 0.0 CALM 0 0 0 0 1031.1 1032.1 0.0
31/02:00am 4.8 3.2 4.7 99 0.0 ESE 2 7 1 4 1031.3 1032.3 0.0
31/01:30am 3.6 2.1 2.9 95 0.3 CALM 0 0 0 0 1031.4 1032.4 0.0
31/01:00am 5.1 4.0 5.0 99 0.0 CALM 0 0 0 0 1031.5 1032.5 0.0
31/12:30am 4.6 2.0 4.3 98 0.1 N 7 11 4 6 1031.7 1032.7 0.0
31/12:00am 7.5 5.4 6.0 90 0.7 E 6 9 3 5 1031.6 1032.6 0.0
 
Date/Time
EST
Temp
°C
App
Temp
°C
Dew
Point
°C
Rel
Hum
%
Delta-T
°C
Wind Press
QNH
hPa
Press
MSL
hPa
Rain since
9am
mm
Dir  Spd
km/h
Gust
km/h
Spd
kts
Gust
kts
30/11:30pm 6.3 4.6 5.7 96 0.3 ESE 4 9 2 5 1031.8 1032.8 0.0

Other formats

Comma delimited format used in spreadsheet applications
http://www.bom.gov.au/fwo/IDN60801/IDN60801.94926.axf

JavaScript Object Notation format (JSON) in row-major order
http://www.bom.gov.au/fwo/IDN60801/IDN60801.94926.json

Data quality

Most of these data are generated automatically and are frequently updated. Quality checks on data are not normally performed. It is possible for incorrect values to appear. Refer to information at About Latest Weather Observations and please check the disclaimer before using these data.